Time;durP1;ratioP1;P1;durP2;ratioP2;P2;SDS_P1;SDS_P2;PMS_P1;PMS_P2;Temp;Humidity;BMP_temperature;BMP_pressure;BME280_temperature;BME280_humidity;BME280_pressure;Samples;Min_cycle;Max_cycle;Signal;HPM_P1;HPM_P2
2022/05/16 00:02:13;;;;;;;13.00;11.90;;;;;;;20.39;100.00;99727.53;5030514;28;20276;-59
2022/05/16 00:04:41;;;;;;;13.20;12.17;;;;;;;20.37;100.00;99719.00;5030524;28;20198;-59
2022/05/16 00:07:08;;;;;;;12.97;11.67;;;;;;;20.29;100.00;99719.50;5030532;28;20704;-59
2022/05/16 00:09:35;;;;;;;12.70;11.60;;;;;;;20.24;100.00;99733.72;5030348;28;20213;-59
2022/05/16 00:12:03;;;;;;;12.10;11.30;;;;;;;20.19;100.00;99733.19;5030082;28;20205;-59
2022/05/16 00:14:31;;;;;;;12.37;11.53;;;;;;;20.04;100.00;99737.59;5030235;28;20197;-59
2022/05/16 00:16:57;;;;;;;11.77;10.77;;;;;;;19.89;99.46;99723.78;5030075;28;20198;-59
2022/05/16 00:19:26;;;;;;;14.50;13.20;;;;;;;19.82;99.24;99738.13;5032205;28;20204;-59
2022/05/16 00:21:53;;;;;;;15.57;14.13;;;;;;;19.72;99.32;99730.97;5034142;28;20661;-59
2022/05/16 00:24:24;;;;;;;15.80;13.63;;;;;;;19.60;99.84;99731.75;5034240;28;20691;-59
2022/05/16 00:26:52;;;;;;;14.00;12.73;;;;;;;19.55;100.00;99729.41;5033996;28;20202;-59
2022/05/16 00:29:18;;;;;;;14.73;12.93;;;;;;;19.53;100.00;99728.69;5033887;28;20213;-59
2022/05/16 00:31:45;;;;;;;13.97;12.63;;;;;;;19.49;100.00;99735.00;5033932;28;20197;-59
2022/05/16 00:34:12;;;;;;;15.03;12.90;;;;;;;19.50;100.00;99726.28;5033659;28;20208;-59
2022/05/16 00:36:42;;;;;;;13.07;11.87;;;;;;;19.42;100.00;99723.28;5028059;28;20218;-59
2022/05/16 00:39:09;;;;;;;13.73;12.50;;;;;;;19.52;100.00;99733.97;5013761;28;20226;-59
2022/05/16 00:41:36;;;;;;;13.97;12.77;;;;;;;19.52;100.00;99734.81;5013427;28;20209;-59
2022/05/16 00:44:03;;;;;;;13.37;12.17;;;;;;;19.55;100.00;99739.00;5013855;28;20198;-59
2022/05/16 00:46:33;;;;;;;12.63;11.63;;;;;;;19.54;100.00;99730.38;5010261;28;20209;-59
2022/05/16 00:49:01;;;;;;;13.33;12.23;;;;;;;19.50;100.00;99730.63;5013512;28;20567;-59
2022/05/16 00:51:33;;;;;;;13.47;12.27;;;;;;;19.44;100.00;99731.84;5013824;28;20224;-59
2022/05/16 00:54:09;;;;;;;14.33;11.00;;;;;;;19.43;100.00;99724.97;5013641;28;20745;-59
2022/05/16 00:56:38;;;;;;;11.73;11.03;;;;;;;19.43;100.00;99729.31;5013816;28;20232;-59
2022/05/16 00:59:05;;;;;;;12.30;11.40;;;;;;;19.40;100.00;99732.97;5013398;28;20200;-59
2022/05/16 01:07:04;;;;;;;12.83;12.03;;;;;;;19.24;100.00;99729.59;5013436;28;20578;-59
2022/05/16 01:09:33;;;;;;;13.83;12.63;;;;;;;19.20;100.00;99722.88;5013276;28;20337;-59
2022/05/16 01:12:01;;;;;;;13.63;12.23;;;;;;;19.13;100.00;99712.03;5013474;28;20654;-59
2022/05/16 01:14:47;;;;;;;10.97;10.37;;;;;;;19.21;100.00;99729.78;5013403;28;20206;-59
2022/05/16 01:17:15;;;;;;;11.50;10.70;;;;;;;19.16;100.00;99731.81;5013147;28;20202;-59
2022/05/16 01:19:42;;;;;;;11.67;10.87;;;;;;;19.14;100.00;99729.31;5013430;28;20670;-59
2022/05/16 01:22:18;;;;;;;11.77;10.77;;;;;;;19.02;100.00;99718.81;5013088;28;20202;-59
2022/05/16 01:24:46;;;;;;;11.27;10.47;;;;;;;19.00;100.00;99712.88;5013094;28;20193;-59
2022/05/16 01:27:13;;;;;;;10.57;9.77;;;;;;;19.05;100.00;99726.41;5012841;28;20300;-59
2022/05/16 01:29:40;;;;;;;10.17;9.37;;;;;;;19.02;100.00;99726.59;5011058;28;20221;-59
2022/05/16 01:32:08;;;;;;;9.73;9.20;;;;;;;18.97;99.89;99720.81;5010557;28;20198;-59
2022/05/16 01:34:35;;;;;;;10.00;9.03;;;;;;;18.90;99.71;99724.75;5011689;28;20219;-59
2022/05/16 01:37:02;;;;;;;10.23;9.53;;;;;;;18.90;98.92;99720.38;5014223;28;20564;-59
2022/05/16 01:39:31;;;;;;;8.30;7.70;;;;;;;18.80;98.34;99720.06;5011656;28;20198;-59
2022/05/16 01:41:57;;;;;;;8.17;7.47;;;;;;;18.72;98.01;99732.66;5020895;28;20582;-59
2022/05/16 01:44:24;;;;;;;7.70;7.10;;;;;;;18.64;97.86;99734.84;5032191;28;20208;-59
2022/05/16 01:46:52;;;;;;;7.83;7.33;;;;;;;18.48;97.94;99718.47;5032391;28;20201;-59
2022/05/16 01:49:19;;;;;;;7.93;7.43;;;;;;;18.50;97.88;99724.44;5031200;28;20213;-59
2022/05/16 01:51:46;;;;;;;7.53;7.13;;;;;;;18.46;98.38;99735.91;5032072;28;20204;-59
2022/05/16 01:54:13;;;;;;;8.43;7.63;;;;;;;18.47;97.78;99724.59;5032363;28;20228;-59
2022/05/16 01:56:41;;;;;;;8.00;7.60;;;;;;;18.39;97.73;99716.41;5031900;28;20237;-59
2022/05/16 01:59:09;;;;;;;7.73;7.30;;;;;;;18.42;97.78;99733.56;5014196;28;20225;-59
2022/05/16 02:01:36;;;;;;;10.67;8.00;;;;;;;18.34;97.72;99728.81;5012397;28;20198;-59
2022/05/16 02:04:03;;;;;;;7.10;6.80;;;;;;;18.31;97.71;99726.38;5012691;28;20205;-59
2022/05/16 02:06:31;;;;;;;7.43;6.87;;;;;;;18.27;97.68;99730.06;5012447;28;20198;-59
2022/05/16 02:08:58;;;;;;;6.80;6.40;;;;;;;18.20;98.05;99718.34;5012195;28;20271;-59
2022/05/16 02:11:24;;;;;;;7.57;7.17;;;;;;;18.23;97.89;99718.19;5012499;28;20708;-59
2022/05/16 02:13:53;;;;;;;6.70;6.30;;;;;;;18.16;97.99;99711.66;5016304;28;20209;-59
2022/05/16 02:16:20;;;;;;;7.73;7.23;;;;;;;18.17;97.97;99727.16;5031846;28;20562;-59
2022/05/16 02:18:47;;;;;;;8.53;8.03;;;;;;;18.19;98.10;99721.91;5031834;28;20574;-59
2022/05/16 02:26:46;;;;;;;7.73;7.33;;;;;;;18.09;96.92;99705.16;5031645;28;20290;-59
2022/05/16 02:29:17;;;;;;;7.27;6.77;;;;;;;18.02;96.93;99701.25;5031827;28;20209;-59
2022/05/16 02:31:43;;;;;;;7.33;6.97;;;;;;;18.10;96.82;99720.63;5010703;28;20198;-59
2022/05/16 02:34:10;;;;;;;7.77;7.27;;;;;;;17.96;97.14;99707.63;5010644;28;20202;-59
2022/05/16 02:36:37;;;;;;;8.67;7.67;;;;;;;17.96;97.21;99714.56;5011313;28;20206;-59
2022/05/16 02:39:05;;;;;;;7.03;6.67;;;;;;;18.00;97.23;99721.22;5011443;28;20198;-59
2022/05/16 02:41:32;;;;;;;7.10;6.60;;;;;;;17.96;96.79;99722.34;5011453;28;20204;-59
2022/05/16 02:43:59;;;;;;;7.10;6.60;;;;;;;17.92;96.80;99724.25;5010995;28;20202;-59
2022/05/16 02:46:27;;;;;;;6.93;6.53;;;;;;;17.83;97.00;99710.00;5024305;28;20225;-59
2022/05/16 02:48:54;;;;;;;9.87;6.40;;;;;;;17.83;97.23;99720.38;5031464;28;20594;-59
2022/05/16 02:51:21;;;;;;;6.37;5.93;;;;;;;17.82;97.22;99726.53;5019370;28;20193;-59
2022/05/16 02:53:48;;;;;;;9.60;7.50;;;;;;;17.81;97.29;99732.63;5018324;28;20206;-59
2022/05/16 02:56:15;;;;;;;6.03;5.73;;;;;;;17.65;97.17;99707.59;5011255;28;20229;-59
2022/05/16 02:58:43;;;;;;;6.43;5.87;;;;;;;17.75;97.35;99729.53;5011716;28;20233;-59
2022/05/16 03:01:11;;;;;;;6.77;6.40;;;;;;;17.68;97.46;99721.22;5019766;28;20661;-59
2022/05/16 03:03:40;;;;;;;6.53;6.13;;;;;;;17.72;97.54;99732.28;5011632;28;20645;-59
2022/05/16 03:06:08;;;;;;;6.37;5.90;;;;;;;17.72;97.56;99735.72;5011144;28;20597;-59
2022/05/16 03:08:37;;;;;;;6.90;6.60;;;;;;;17.73;97.67;99739.16;5011521;28;20570;-59
2022/05/16 03:11:04;;;;;;;6.40;6.00;;;;;;;17.73;97.51;99733.97;5011107;28;20715;-59
2022/05/16 03:13:31;;;;;;;6.33;6.03;;;;;;;17.75;97.69;99737.28;5011540;28;20690;-59
2022/05/16 03:15:59;;;;;;;7.53;7.13;;;;;;;17.68;97.60;99726.41;5011240;28;20201;-59
2022/05/16 03:18:28;;;;;;;6.97;6.57;;;;;;;17.78;97.33;99745.75;5011001;28;20205;-59
2022/05/16 03:20:57;;;;;;;6.33;6.03;;;;;;;17.81;97.02;99742.16;5011018;28;20194;-59
2022/05/16 03:23:24;;;;;;;7.57;7.07;;;;;;;17.83;96.82;99742.91;5010566;28;20198;-59
2022/05/16 03:25:51;;;;;;;7.03;6.60;;;;;;;17.82;96.82;99744.66;5010963;28;20212;-59
2022/05/16 03:28:19;;;;;;;6.47;6.07;;;;;;;17.83;96.75;99751.50;5010954;28;20683;-59
2022/05/16 03:30:46;;;;;;;6.53;5.90;;;;;;;17.87;96.54;99746.19;5010055;28;20580;-59
2022/05/16 03:33:13;;;;;;;12.00;7.47;;;;;;;17.92;96.88;99744.16;5010649;28;20206;-59
2022/05/16 03:35:40;;;;;;;9.80;7.13;;;;;;;17.91;96.90;99739.88;5009241;28;20198;-59
2022/05/16 03:40:41;;;;;;;6.83;6.03;;;;;;;18.00;97.01;99753.19;5009911;28;20206;-59
2022/05/16 03:40:55;;;;;;;6.53;6.20;;;;;;;18.09;97.41;99760.50;5009290;28;20197;-59
2022/05/16 03:43:22;;;;;;;7.50;6.80;;;;;;;18.15;97.41;99752.38;5010799;28;20579;-59
2022/05/16 03:45:49;;;;;;;6.70;6.30;;;;;;;18.26;96.64;99762.13;5010476;28;20574;-59
2022/05/16 03:48:16;;;;;;;9.40;6.90;;;;;;;18.40;96.87;99767.41;5010915;28;20248;-59
2022/05/16 03:50:43;;;;;;;6.70;6.33;;;;;;;18.36;96.50;99740.78;5010611;28;20224;-59
2022/05/16 03:53:11;;;;;;;6.83;6.30;;;;;;;18.61;95.50;99773.19;5010472;28;20206;-59
2022/05/16 03:55:38;;;;;;;7.87;7.13;;;;;;;18.72;94.42;99779.41;5012545;28;20201;-59
2022/05/16 03:58:05;;;;;;;6.70;6.30;;;;;;;18.79;93.37;99775.56;5012655;28;20709;-59
2022/05/16 04:00:32;;;;;;;6.57;6.17;;;;;;;18.87;92.07;99781.13;5012671;28;20190;-59
2022/05/16 04:02:59;;;;;;;6.97;6.57;;;;;;;18.84;92.14;99765.72;5012874;28;20205;-59
2022/05/16 04:05:26;;;;;;;6.80;6.50;;;;;;;19.05;91.69;99781.00;5012717;28;20206;-59
2022/05/16 04:07:52;;;;;;;10.87;6.40;;;;;;;19.12;91.20;99782.31;5013479;28;20197;-59
2022/05/16 04:10:21;;;;;;;6.67;6.10;;;;;;;19.17;91.25;99782.84;5014390;28;20210;-59
2022/05/16 04:12:48;;;;;;;7.60;7.03;;;;;;;19.22;91.33;99767.84;5014516;28;20210;-59
2022/05/16 04:15:15;;;;;;;6.50;6.20;;;;;;;19.35;90.60;99784.38;5014562;28;20190;-59
2022/05/16 04:17:43;;;;;;;6.27;5.97;;;;;;;19.39;89.94;99775.44;5014338;28;20206;-59
2022/05/16 04:20:12;;;;;;;7.80;7.03;;;;;;;19.66;89.86;99793.78;5014560;28;20268;-59
2022/05/16 04:22:39;;;;;;;6.40;5.90;;;;;;;19.78;88.89;99793.88;5014236;28;20202;-59
2022/05/16 04:25:08;;;;;;;6.73;6.27;;;;;;;19.92;88.97;99795.63;5014464;28;20194;-59
2022/05/16 04:27:36;;;;;;;6.50;6.20;;;;;;;20.06;88.59;99798.22;5013455;28;20210;-59
2022/05/16 04:30:04;;;;;;;6.63;6.33;;;;;;;20.21;88.50;99788.59;5014149;28;20260;-59
2022/05/16 04:32:31;;;;;;;6.97;6.60;;;;;;;20.36;87.76;99790.22;5013418;28;20205;-59
2022/05/16 04:34:58;;;;;;;6.73;6.40;;;;;;;20.53;87.26;99790.00;5014081;28;20202;-59
2022/05/16 04:37:26;;;;;;;7.90;7.23;;;;;;;20.80;87.86;99793.41;5014127;28;20190;-59
2022/05/16 04:39:53;;;;;;;7.27;6.87;;;;;;;21.07;86.17;99795.94;5013903;28;20206;-59
2022/05/16 04:45:06;;;;;;;7.00;6.47;;;;;;;21.54;84.82;99792.75;5013963;28;20232;-59
2022/05/16 04:47:33;;;;;;;7.77;6.93;;;;;;;21.74;83.99;99794.84;5013868;28;20207;-59
2022/05/16 04:50:00;;;;;;;7.47;6.10;;;;;;;21.92;83.11;99787.50;5013659;28;20227;-59
2022/05/16 04:52:28;;;;;;;6.60;6.17;;;;;;;22.10;81.04;99790.59;5013724;28;20207;-60
2022/05/16 04:54:55;;;;;;;6.47;5.97;;;;;;;22.28;79.77;99789.28;5013701;28;20197;-59
2022/05/16 04:57:22;;;;;;;6.33;6.03;;;;;;;22.37;78.15;99793.84;5013618;28;20229;-59
2022/05/16 04:59:49;;;;;;;6.97;6.47;;;;;;;22.53;76.82;99794.38;5013821;28;20200;-59
2022/05/16 05:02:18;;;;;;;6.00;5.70;;;;;;;22.75;76.16;99794.50;5012342;28;20213;-60
2022/05/16 05:04:45;;;;;;;6.67;6.03;;;;;;;22.92;75.04;99786.25;5013177;28;20688;-60
2022/05/16 05:07:13;;;;;;;6.00;5.60;;;;;;;23.07;74.04;99793.91;5012862;28;20601;-60
2022/05/16 05:15:07;;;;;;;5.43;5.00;;;;;;;23.48;72.58;99804.69;5014037;28;20578;-60
2022/05/16 05:17:35;;;;;;;6.30;6.00;;;;;;;23.43;70.62;99776.25;5018593;28;20201;-60
2022/05/16 05:20:02;;;;;;;6.17;5.77;;;;;;;23.81;70.78;99812.53;5024014;28;20221;-60
2022/05/16 05:22:29;;;;;;;6.20;5.90;;;;;;;23.98;71.01;99819.91;5012981;28;20206;-60
2022/05/16 05:24:56;;;;;;;6.20;5.70;;;;;;;23.98;70.58;99814.69;5012625;28;20582;-60
2022/05/16 05:27:23;;;;;;;5.53;5.23;;;;;;;23.93;71.23;99806.38;5012746;28;20213;-60
2022/05/16 05:29:51;;;;;;;6.63;6.23;;;;;;;24.10;69.76;99812.06;5011952;28;20662;-60
2022/05/16 05:32:18;;;;;;;5.97;5.73;;;;;;;24.28;70.56;99811.44;5012861;28;20209;-60
2022/05/16 05:34:46;;;;;;;5.87;5.57;;;;;;;24.27;69.97;99809.78;5012673;28;20202;-60
2022/05/16 05:37:14;;;;;;;5.67;5.37;;;;;;;24.40;70.02;99807.00;5012777;28;20194;-60
2022/05/16 05:39:41;;;;;;;5.63;5.40;;;;;;;24.65;67.89;99813.72;5012856;28;20209;-60
2022/05/16 05:42:08;;;;;;;6.20;5.80;;;;;;;24.87;66.98;99809.25;5012530;28;20198;-60
2022/05/16 05:44:35;;;;;;;5.33;5.13;;;;;;;24.91;67.10;99821.13;5012880;28;20202;-60
2022/05/16 05:47:02;;;;;;;5.53;5.33;;;;;;;25.11;66.74;99808.13;5012223;28;20209;-60
2022/05/16 05:49:29;;;;;;;6.17;5.73;;;;;;;25.40;64.54;99817.84;5012542;28;20204;-60
2022/05/16 05:51:58;;;;;;;6.13;5.83;;;;;;;25.47;65.86;99819.00;5012373;28;20217;-60
2022/05/16 05:54:24;;;;;;;5.10;4.80;;;;;;;25.76;63.78;99824.41;5012256;28;20206;-60
2022/05/16 05:56:51;;;;;;;5.03;4.83;;;;;;;26.01;62.50;99813.44;5012156;28;20230;-60
2022/05/16 05:59:18;;;;;;;5.87;5.57;;;;;;;26.05;63.31;99822.72;5011918;28;20202;-60
2022/05/16 06:01:45;;;;;;;5.33;5.13;;;;;;;26.27;63.80;99823.50;5012262;28;20213;-60
2022/05/16 06:04:12;;;;;;;5.70;5.40;;;;;;;26.44;62.90;99825.47;5012221;28;20205;-60
2022/05/16 06:06:43;;;;;;;6.23;5.57;;;;;;;26.52;61.68;99823.84;5012415;28;20579;-60
2022/05/16 06:09:11;;;;;;;5.57;5.23;;;;;;;26.57;60.39;99828.66;5012388;28;20678;-60
2022/05/16 06:11:38;;;;;;;5.60;5.30;;;;;;;26.72;60.69;99822.00;5011873;28;20284;-60
2022/05/16 06:14:05;;;;;;;5.87;5.53;;;;;;;26.99;58.12;99824.81;5012511;28;20194;-60
2022/05/16 06:16:32;;;;;;;5.37;4.97;;;;;;;27.14;56.56;99831.28;5011889;28;20217;-60
2022/05/16 06:18:59;;;;;;;5.37;4.87;;;;;;;27.34;57.02;99831.25;5012188;28;20225;-60
2022/05/16 06:21:25;;;;;;;4.97;4.77;;;;;;;27.47;55.57;99834.44;5030602;28;20582;-60
2022/05/16 06:23:52;;;;;;;5.27;5.00;;;;;;;27.36;57.86;99797.72;5030158;28;20201;-60
2022/05/16 06:26:21;;;;;;;7.53;4.73;;;;;;;27.76;54.63;99837.81;5008932;28;20702;-60
2022/05/16 06:28:48;;;;;;;5.20;4.80;;;;;;;27.96;55.77;99838.56;5010963;28;20216;-60
2022/05/16 06:31:16;;;;;;;5.20;5.00;;;;;;;28.03;54.15;99829.94;5011009;28;20221;-60
2022/05/16 06:33:46;;;;;;;5.20;4.90;;;;;;;28.14;53.54;99837.66;5011008;28;20205;-60
2022/05/16 06:36:14;;;;;;;5.80;5.40;;;;;;;28.17;52.96;99833.09;5011278;28;20257;-60
2022/05/16 06:38:41;;;;;;;5.40;5.10;;;;;;;28.30;54.92;99836.19;5011770;28;20201;-60
2022/05/16 06:41:08;;;;;;;5.30;5.00;;;;;;;28.19;53.16;99823.22;5011909;28;20202;-60
2022/05/16 06:43:37;;;;;;;5.87;5.40;;;;;;;28.42;51.15;99833.19;5011741;28;20664;-60
2022/05/16 06:46:04;;;;;;;4.63;4.43;;;;;;;28.39;52.27;99835.31;5011729;28;20202;-60
2022/05/16 06:48:31;;;;;;;4.53;4.33;;;;;;;28.57;50.52;99822.94;5011794;28;20208;-61
2022/05/16 06:50:58;;;;;;;6.17;5.77;;;;;;;28.88;51.77;99823.44;5011323;28;20218;-60
2022/05/16 06:53:27;;;;;;;5.00;4.60;;;;;;;28.76;51.40;99822.81;5011512;28;20213;-60
2022/05/16 06:55:54;;;;;;;5.37;5.07;;;;;;;28.81;51.39;99817.09;5011321;28;20226;-60
2022/05/16 06:58:21;;;;;;;4.57;4.27;;;;;;;29.01;49.07;99827.34;5011638;28;20198;-60
2022/05/16 07:00:50;;;;;;;4.77;4.57;;;;;;;29.08;48.50;99817.00;5011378;28;20198;-60
2022/05/16 07:03:18;;;;;;;4.33;4.13;;;;;;;29.19;46.30;99812.28;5011387;28;20233;-60
2022/05/16 07:05:46;;;;;;;4.27;3.97;;;;;;;29.52;45.62;99831.00;5011170;28;20682;-60
2022/05/16 07:08:13;;;;;;;3.63;3.53;;;;;;;29.48;48.46;99819.09;5011224;28;20237;-60
2022/05/16 07:10:40;;;;;;;4.60;4.30;;;;;;;29.60;49.10;99828.41;5011191;28;20224;-61
2022/05/16 07:13:08;;;;;;;5.00;4.80;;;;;;;29.89;46.97;99834.19;5011265;28;20206;-61
2022/05/16 07:15:35;;;;;;;4.97;4.70;;;;;;;30.08;46.82;99823.34;5011197;28;20250;-61
2022/05/16 07:18:03;;;;;;;4.90;4.60;;;;;;;30.37;47.57;99827.41;5010535;28;20202;-61
2022/05/16 07:20:30;;;;;;;5.10;4.90;;;;;;;30.47;47.88;99825.50;5010389;28;20216;-61
2022/05/16 07:22:58;;;;;;;5.03;4.83;;;;;;;30.57;46.91;99820.84;5010917;28;20210;-61
2022/05/16 07:25:27;;;;;;;5.10;4.83;;;;;;;30.63;46.29;99810.44;5010452;28;20671;-61
2022/05/16 07:27:56;;;;;;;5.83;5.63;;;;;;;30.60;49.71;99824.00;5010645;28;20205;-61
2022/05/16 07:30:24;;;;;;;5.07;4.88;;;;;;;30.48;48.94;99806.78;5010835;28;20198;-61
2022/05/16 07:32:52;;;;;;;5.60;5.30;;;;;;;30.71;49.47;99830.78;5011004;28;20202;-61
2022/05/16 07:35:23;;;;;;;5.20;4.90;;;;;;;30.72;48.19;99816.56;5011068;28;20201;-61
2022/05/16 07:37:53;;;;;;;5.13;4.90;;;;;;;30.89;46.90;99818.22;5011013;28;20198;-61
2022/05/16 07:40:22;;;;;;;5.30;5.10;;;;;;;30.94;48.51;99810.63;5011284;28;20229;-61
2022/05/16 07:42:49;;;;;;;5.32;5.13;;;;;;;31.00;47.89;99815.28;5010918;28;20202;-61
2022/05/16 07:45:16;;;;;;;5.30;5.10;;;;;;;31.15;47.21;99818.91;5010782;28;20666;-61
2022/05/16 07:47:43;;;;;;;4.83;4.63;;;;;;;31.24;46.66;99817.88;5017468;28;20641;-61
2022/05/16 07:50:10;;;;;;;4.82;4.65;;;;;;;31.37;44.38;99816.56;5012563;28;20198;-61
2022/05/16 07:52:41;;;;;;;5.00;4.65;;;;;;;31.43;43.76;99808.75;5010971;28;20299;-61
2022/05/16 07:55:09;;;;;;;5.78;5.38;;;;;;;31.38;43.54;99807.59;5010926;28;20210;-61
2022/05/16 07:57:36;;;;;;;5.28;5.07;;;;;;;31.10;43.97;99808.00;5010691;28;20728;-61
2022/05/16 08:00:04;;;;;;;5.05;4.72;;;;;;;31.21;45.59;99794.38;5010743;28;20297;-61
2022/05/16 08:02:31;;;;;;;5.05;4.82;;;;;;;31.54;43.72;99808.41;5011211;28;20285;-60
2022/05/16 08:04:58;;;;;;;5.40;5.20;;;;;;;31.79;45.11;99806.53;5010995;28;20594;-61
2022/05/16 08:07:25;;;;;;;5.15;4.85;;;;;;;31.50;42.96;99801.00;5010740;28;20212;-61
2022/05/16 08:12:39;;;;;;;4.32;4.13;;;;;;;31.83;40.77;99797.19;5010849;28;20311;-61
2022/05/16 08:15:07;;;;;;;4.75;4.55;;;;;;;31.75;41.88;99799.91;5010992;28;20202;-61
2022/05/16 08:17:34;;;;;;;5.03;4.82;;;;;;;31.71;43.19;99793.28;5010716;28;20198;-61
2022/05/16 08:20:04;;;;;;;8.40;5.53;;;;;;;31.53;45.69;99800.66;5009957;28;20210;-61
2022/05/16 08:22:34;;;;;;;5.07;4.88;;;;;;;31.61;42.72;99779.41;5008943;28;20966;-61
2022/05/16 08:25:03;;;;;;;5.20;4.88;;;;;;;31.90;44.07;99803.47;5010567;28;20293;-61
2022/05/16 08:27:29;;;;;;;5.75;5.32;;;;;;;31.62;43.05;99799.63;5010655;28;20213;-61
2022/05/16 08:29:56;;;;;;;4.97;4.78;;;;;;;31.24;43.77;99796.69;5010369;28;20209;-61
2022/05/16 08:32:24;;;;;;;4.63;4.43;;;;;;;31.13;45.32;99789.09;5010287;28;20217;-61
2022/05/16 08:34:51;;;;;;;4.80;4.55;;;;;;;31.40;44.16;99798.50;5010602;28;20198;-61
2022/05/16 08:40:05;;;;;;;8.90;4.72;;;;;;;31.76;42.40;99798.91;5011801;28;20701;-61
2022/05/16 08:42:44;;;;;;;5.15;4.85;;;;;;;31.63;43.34;99786.16;5013666;28;20203;-61
2022/05/16 08:45:17;;;;;;;4.15;4.05;;;;;;;31.47;42.32;99786.19;5013901;28;20205;-61
2022/05/16 08:47:54;;;;;;;3.97;3.83;;;;;;;31.57;41.14;99791.34;5013870;28;20244;-61
2022/05/16 08:50:28;;;;;;;3.92;3.83;;;;;;;31.62;40.88;99778.41;5014374;28;20220;-61
2022/05/16 08:53:00;;;;;;;4.20;4.00;;;;;;;31.83;44.13;99791.91;5023466;28;20217;-61
2022/05/16 08:55:34;;;;;;;4.07;3.92;;;;;;;31.87;40.65;99792.38;5033082;28;20205;-61
2022/05/16 08:58:07;;;;;;;4.78;4.47;;;;;;;32.00;41.06;99787.34;5022504;28;20198;-61
2022/05/16 09:00:41;;;;;;;4.53;4.22;;;;;;;32.14;39.06;99789.28;5013709;28;20206;-61
2022/05/16 09:03:13;;;;;;;3.95;3.72;;;;;;;32.29;40.25;99787.53;5013666;28;20204;-61
2022/05/16 09:05:45;;;;;;;5.03;4.63;;;;;;;32.40;43.98;99775.69;5013506;28;20198;-61
2022/05/16 09:08:18;;;;;;;5.25;4.85;;;;;;;32.45;41.04;99781.28;5013594;28;20582;-61
2022/05/16 09:11:02;;;;;;;4.63;3.97;;;;;;;32.60;40.79;99774.25;5013094;28;20205;-61
2022/05/16 09:13:43;;;;;;;4.25;4.05;;;;;;;32.57;39.78;99777.28;5013476;28;20252;-61
2022/05/16 09:16:21;;;;;;;4.38;4.18;;;;;;;32.24;38.85;99779.28;5013529;28;20213;-61
2022/05/16 09:18:56;;;;;;;3.60;3.47;;;;;;;32.18;40.01;99758.78;5013645;28;20610;-61
2022/05/16 09:21:31;;;;;;;4.78;4.38;;;;;;;32.40;41.07;99759.78;5015500;28;20678;-61
2022/05/16 09:24:06;;;;;;;4.15;3.95;;;;;;;32.10;39.36;99758.81;5013102;28;20277;-61
2022/05/16 09:26:48;;;;;;;4.13;3.88;;;;;;;32.18;42.46;99742.84;5013412;28;20213;-61
2022/05/16 09:29:23;;;;;;;3.65;3.45;;;;;;;32.18;37.34;99743.66;5013192;28;20225;-61
2022/05/16 09:31:52;;;;;;;5.10;4.85;;;;;;;32.36;38.92;99745.19;5013130;28;20593;-61
2022/05/16 09:34:19;;;;;;;4.00;3.80;;;;;;;32.24;38.40;99731.53;5013297;28;20575;-61
2022/05/16 09:36:49;;;;;;;3.63;3.50;;;;;;;32.44;41.67;99742.50;5013012;28;20666;-61
2022/05/16 09:39:20;;;;;;;5.10;4.80;;;;;;;32.49;38.09;99740.13;5015538;28;20210;-61
2022/05/16 09:41:56;;;;;;;3.40;3.30;;;;;;;32.65;36.70;99738.19;5012906;28;20190;-61
2022/05/16 09:44:26;;;;;;;3.22;3.03;;;;;;;32.72;35.40;99720.53;5013290;28;20658;-61
2022/05/16 09:47:18;;;;;;;2.90;2.80;;;;;;;32.81;36.41;99734.56;5012911;28;20693;-61
2022/05/16 09:49:47;;;;;;;7.28;3.78;;;;;;;32.79;34.99;99731.28;5013076;28;20264;-61
2022/05/16 09:52:21;;;;;;;2.95;2.85;;;;;;;32.71;32.80;99733.97;5012258;28;20276;-61
2022/05/16 09:55:00;;;;;;;2.95;2.85;;;;;;;32.36;33.50;99724.78;5012560;28;20201;-61
2022/05/16 09:57:30;;;;;;;3.83;3.30;;;;;;;31.86;33.98;99730.56;5012547;28;20221;-61
2022/05/16 09:59:59;;;;;;;3.78;3.58;;;;;;;31.88;34.86;99730.41;5012679;28;20745;-61
2022/05/16 10:02:28;;;;;;;3.03;2.88;;;;;;;31.80;33.71;99707.38;5012525;28;20248;-61
2022/05/16 10:04:58;;;;;;;3.00;2.90;;;;;;;32.02;33.46;99719.84;5012117;28;20194;-61
2022/05/16 10:07:42;;;;;;;3.15;2.88;;;;;;;32.07;33.79;99709.59;5012548;28;20202;-61
2022/05/16 10:10:14;;;;;;;3.13;3.03;;;;;;;32.34;33.07;99712.72;5012543;28;20682;-61
2022/05/16 10:12:43;;;;;;;3.33;3.05;;;;;;;32.37;35.70;99704.41;5012276;28;20288;-61
2022/05/16 10:15:12;;;;;;;3.42;3.33;;;;;;;32.17;36.53;99698.75;5015709;28;20209;-61
2022/05/16 10:17:41;;;;;;;2.53;2.42;;;;;;;32.04;34.13;99693.19;5010397;28;20202;-61
2022/05/16 10:20:13;;;;;;;2.90;2.80;;;;;;;31.92;34.46;99679.50;5012143;28;20272;-61
2022/05/16 10:22:40;;;;;;;3.03;2.92;;;;;;;31.81;35.34;99690.50;5012280;28;20583;-61
2022/05/16 10:25:12;;;;;;;3.33;3.22;;;;;;;31.61;34.68;99691.91;5012241;28;20202;-61
2022/05/16 10:27:39;;;;;;;3.03;2.92;;;;;;;31.52;33.59;99682.38;5012133;28;20209;-61
2022/05/16 10:30:15;;;;;;;3.63;3.13;;;;;;;31.45;34.34;99681.38;5010260;28;20229;-60
2022/05/16 10:35:37;;;;;;;2.83;2.72;;;;;;;31.43;34.62;99662.19;5008477;28;20216;-61
2022/05/16 10:38:16;;;;;;;2.60;2.40;;;;;;;31.54;35.41;99661.81;5010612;28;20202;-61
2022/05/16 10:40:48;;;;;;;2.90;2.70;;;;;;;31.62;33.19;99667.06;5009137;28;20202;-61
2022/05/16 10:43:30;;;;;;;2.92;2.83;;;;;;;31.82;36.43;99655.03;5011292;28;20194;-61
2022/05/16 10:46:03;;;;;;;5.75;3.10;;;;;;;32.03;42.53;99639.28;5010539;28;20564;-61
2022/05/16 10:48:39;;;;;;;3.08;2.97;;;;;;;32.27;35.57;99637.47;5011232;28;20194;-61
2022/05/16 10:51:11;;;;;;;7.10;2.90;;;;;;;32.31;34.26;99642.25;5011507;28;20202;-61
2022/05/16 10:53:45;;;;;;;3.00;2.90;;;;;;;32.41;34.33;99637.50;5011823;28;20288;-61
2022/05/16 10:56:37;;;;;;;2.65;2.55;;;;;;;32.23;30.76;99632.53;5011408;28;20284;-61
2022/05/16 10:59:17;;;;;;;3.15;2.95;;;;;;;32.15;32.95;99627.28;5012017;28;20208;-61
2022/05/16 11:01:51;;;;;;;3.80;3.50;;;;;;;32.06;33.74;99622.22;5011616;28;20201;-61
2022/05/16 11:04:48;;;;;;;2.63;2.53;;;;;;;32.27;33.37;99621.56;5010349;28;20201;-61
2022/05/16 11:07:27;;;;;;;2.97;2.60;;;;;;;32.41;32.09;99620.75;5011408;28;20686;-61
2022/05/16 11:10:02;;;;;;;2.85;2.65;;;;;;;32.53;31.19;99625.44;5011711;28;20790;-61
2022/05/16 11:12:37;;;;;;;2.83;2.63;;;;;;;32.51;32.43;99600.06;5010740;28;20213;-61
2022/05/16 11:15:09;;;;;;;3.20;2.28;;;;;;;32.41;31.20;99610.94;5010595;28;20225;-61
2022/05/16 11:17:48;;;;;;;2.80;2.15;;;;;;;32.44;30.33;99605.28;5013003;28;20217;-61
2022/05/16 11:20:24;;;;;;;2.80;2.60;;;;;;;32.28;33.34;99588.72;5011485;28;20202;-61
2022/05/16 11:22:57;;;;;;;1.70;1.65;;;;;;;32.51;32.81;99586.78;5011557;28;20204;-61
2022/05/16 11:25:41;;;;;;;2.50;2.30;;;;;;;32.22;30.00;99603.50;5011058;28;20210;-61
2022/05/16 11:28:14;;;;;;;1.92;1.85;;;;;;;32.22;30.40;99601.69;5010996;28;20202;-60
2022/05/16 11:30:47;;;;;;;2.60;2.50;;;;;;;32.30;33.30;99597.31;5010958;28;20209;-61
2022/05/16 11:33:30;;;;;;;1.98;1.98;;;;;;;32.43;31.69;99601.00;5013197;28;20220;-61
2022/05/16 11:36:00;;;;;;;2.95;2.85;;;;;;;32.44;30.35;99577.94;5011169;28;20198;-61
2022/05/16 11:38:37;;;;;;;2.55;2.03;;;;;;;32.45;30.10;99574.25;5010993;28;20198;-61
2022/05/16 11:41:12;;;;;;;2.20;2.15;;;;;;;32.57;30.63;99575.50;5010932;28;20198;-61
2022/05/16 11:43:44;;;;;;;2.92;2.58;;;;;;;32.54;30.58;99567.84;5012318;28;20209;-61
2022/05/16 11:46:27;;;;;;;2.33;2.15;;;;;;;32.67;29.90;99566.25;5025657;28;20674;-61
2022/05/16 11:49:17;;;;;;;2.50;2.40;;;;;;;32.71;32.77;99556.09;5022018;28;20199;-61
2022/05/16 11:51:57;;;;;;;2.65;2.28;;;;;;;32.69;32.28;99542.19;5030623;28;20197;-61
2022/05/16 11:54:28;;;;;;;2.40;2.30;;;;;;;32.73;32.03;99546.13;5030830;28;20585;-61
2022/05/16 12:02:43;;;;;;;2.53;2.38;;;;;;;32.63;32.66;99532.28;5030558;28;20709;-61
2022/05/16 12:05:15;;;;;;;2.72;2.53;;;;;;;32.56;29.31;99544.63;5030485;28;20205;-61
2022/05/16 12:07:46;;;;;;;2.92;2.83;;;;;;;32.24;28.72;99529.88;5030186;28;20212;-61
2022/05/16 12:10:23;;;;;;;2.83;2.58;;;;;;;32.18;30.72;99526.09;5013367;28;20241;-61
2022/05/16 12:13:18;;;;;;;2.10;2.00;;;;;;;32.11;30.69;99511.94;5009097;28;20221;-61
2022/05/16 12:15:46;;;;;;;2.78;2.33;;;;;;;32.10;31.48;99525.38;5013673;28;20294;-61
2022/05/16 12:18:35;;;;;;;2.38;2.25;;;;;;;32.24;32.87;99528.06;5015455;28;20675;-61